<?xml version="1.0" encoding="UTF-8" standalone="no" ?>
<gpx xmlns="http://www.topografix.com/GPX/1/1" xmlns:xsi="http://www.w3.org/2001/XMLSchema-instance" xsi:schemaLocation="http://www.topografix.com/GPX/1/1 http://www.topografix.com/GPX/1/1/gpx.xsd" version="1.1" creator="VisuGPX - https://www.visugpx.com">
  <metadata>
    <name>Raid Bulles : Barsuraubois</name>
    <desc><![CDATA[parcours RAID BULLES EN CHAMPAGNE 375KM]]></desc>
  </metadata>
  <wpt lat="48.1461" lon="4.76948">
    <ele>206.1</ele>
    <name><![CDATA[Ravitaillement chaud]]></name>
  </wpt>
  <wpt lat="48.14803" lon="4.83346">
    <ele>208.6</ele>
    <name><![CDATA[Départ réel]]></name>
  </wpt>
  <wpt lat="48.13585" lon="4.66919">
    <ele>253.9</ele>
    <name><![CDATA[Gravel début section]]></name>
  </wpt>
  <wpt lat="48.21735" lon="4.71382">
    <ele>168.8</ele>
  </wpt>
  <trk>
    <name><![CDATA[31. Circuit d'Ailleville Le Val des vignes-17237895]]></name>
    <extensions>
      <line xmlns="http://www.topografix.com/GPX/gpx_style/0/2">
        <color>15fa05</color>
        <width>4</width>
      </line>
    </extensions>
    <trkseg>
      <trkpt lat="48.23297" lon="4.70679">
        <ele>170</ele>
        <time>2024-07-03T07:39:29Z</time>
      </trkpt>
      <trkpt lat="48.23477" lon="4.70466">
        <ele>165</ele>
        <time>2024-07-03T07:40:10Z</time>
      </trkpt>
      <trkpt lat="48.23799" lon="4.70834">
        <ele>162</ele>
        <time>2024-07-03T07:41:22Z</time>
      </trkpt>
      <trkpt lat="48.23941" lon="4.71084">
        <ele>162</ele>
        <time>2024-07-03T07:42:01Z</time>
      </trkpt>
      <trkpt lat="48.24332" lon="4.71142">
        <ele>176</ele>
        <time>2024-07-03T07:43:11Z</time>
      </trkpt>
      <trkpt lat="48.24366" lon="4.70919">
        <ele>171</ele>
        <time>2024-07-03T07:43:38Z</time>
      </trkpt>
      <trkpt lat="48.24457" lon="4.70724">
        <ele>168</ele>
        <time>2024-07-03T07:44:06Z</time>
      </trkpt>
      <trkpt lat="48.24463" lon="4.70579">
        <ele>169</ele>
        <time>2024-07-03T07:44:23Z</time>
      </trkpt>
      <trkpt lat="48.24491" lon="4.70526">
        <ele>170</ele>
        <time>2024-07-03T07:44:31Z</time>
      </trkpt>
      <trkpt lat="48.24601" lon="4.70242">
        <ele>170</ele>
        <time>2024-07-03T07:45:10Z</time>
      </trkpt>
      <trkpt lat="48.24649" lon="4.70173">
        <ele>170</ele>
        <time>2024-07-03T07:45:22Z</time>
      </trkpt>
      <trkpt lat="48.24688" lon="4.70088">
        <ele>173</ele>
        <time>2024-07-03T07:45:34Z</time>
      </trkpt>
      <trkpt lat="48.24741" lon="4.69912">
        <ele>177</ele>
        <time>2024-07-03T07:45:57Z</time>
      </trkpt>
      <trkpt lat="48.24787" lon="4.69718">
        <ele>180</ele>
        <time>2024-07-03T07:46:21Z</time>
      </trkpt>
      <trkpt lat="48.24875" lon="4.69451">
        <ele>181</ele>
        <time>2024-07-03T07:46:57Z</time>
      </trkpt>
      <trkpt lat="48.24889" lon="4.69422">
        <ele>181</ele>
        <time>2024-07-03T07:47:01Z</time>
      </trkpt>
      <trkpt lat="48.24958" lon="4.6922">
        <ele>176</ele>
        <time>2024-07-03T07:47:28Z</time>
      </trkpt>
      <trkpt lat="48.25003" lon="4.6912">
        <ele>169</ele>
        <time>2024-07-03T07:47:42Z</time>
      </trkpt>
      <trkpt lat="48.25031" lon="4.69046">
        <ele>168</ele>
        <time>2024-07-03T07:47:52Z</time>
      </trkpt>
      <trkpt lat="48.25036" lon="4.68995">
        <ele>169</ele>
        <time>2024-07-03T07:47:58Z</time>
      </trkpt>
      <trkpt lat="48.25038" lon="4.68884">
        <ele>170</ele>
        <time>2024-07-03T07:48:12Z</time>
      </trkpt>
      <trkpt lat="48.25045" lon="4.68822">
        <ele>171</ele>
        <time>2024-07-03T07:48:19Z</time>
      </trkpt>
      <trkpt lat="48.25063" lon="4.68757">
        <ele>171</ele>
        <time>2024-07-03T07:48:27Z</time>
      </trkpt>
      <trkpt lat="48.25078" lon="4.68724">
        <ele>171</ele>
        <time>2024-07-03T07:48:32Z</time>
      </trkpt>
      <trkpt lat="48.25094" lon="4.68706">
        <ele>172</ele>
        <time>2024-07-03T07:48:36Z</time>
      </trkpt>
      <trkpt lat="48.25103" lon="4.68685">
        <ele>172</ele>
        <time>2024-07-03T07:48:39Z</time>
      </trkpt>
      <trkpt lat="48.25129" lon="4.68645">
        <ele>173</ele>
        <time>2024-07-03T07:48:45Z</time>
      </trkpt>
      <trkpt lat="48.25164" lon="4.68603">
        <ele>173</ele>
        <time>2024-07-03T07:48:53Z</time>
      </trkpt>
      <trkpt lat="48.25189" lon="4.68583">
        <ele>175</ele>
        <time>2024-07-03T07:48:58Z</time>
      </trkpt>
      <trkpt lat="48.25208" lon="4.68572">
        <ele>176</ele>
        <time>2024-07-03T07:49:02Z</time>
      </trkpt>
      <trkpt lat="48.25247" lon="4.68605">
        <ele>180</ele>
        <time>2024-07-03T07:49:10Z</time>
      </trkpt>
      <trkpt lat="48.25295" lon="4.68658">
        <ele>184</ele>
        <time>2024-07-03T07:49:20Z</time>
      </trkpt>
      <trkpt lat="48.25314" lon="4.68676">
        <ele>186</ele>
        <time>2024-07-03T07:49:24Z</time>
      </trkpt>
      <trkpt lat="48.25302" lon="4.68652">
        <ele>184</ele>
        <time>2024-07-03T07:49:28Z</time>
      </trkpt>
      <trkpt lat="48.25298" lon="4.68573">
        <ele>184</ele>
        <time>2024-07-03T07:49:37Z</time>
      </trkpt>
      <trkpt lat="48.25275" lon="4.68455">
        <ele>180</ele>
        <time>2024-07-03T07:49:52Z</time>
      </trkpt>
      <trkpt lat="48.25263" lon="4.68357">
        <ele>176</ele>
        <time>2024-07-03T07:50:04Z</time>
      </trkpt>
      <trkpt lat="48.25226" lon="4.68246">
        <ele>172</ele>
        <time>2024-07-03T07:50:18Z</time>
      </trkpt>
      <trkpt lat="48.25232" lon="4.68175">
        <ele>171</ele>
        <time>2024-07-03T07:50:27Z</time>
      </trkpt>
      <trkpt lat="48.25212" lon="4.68155">
        <ele>170</ele>
        <time>2024-07-03T07:50:31Z</time>
      </trkpt>
      <trkpt lat="48.25173" lon="4.68136">
        <ele>168</ele>
        <time>2024-07-03T07:50:38Z</time>
      </trkpt>
      <trkpt lat="48.25178" lon="4.68094">
        <ele>168</ele>
        <time>2024-07-03T07:50:44Z</time>
      </trkpt>
      <trkpt lat="48.25076" lon="4.67966">
        <ele>160</ele>
        <time>2024-07-03T07:51:07Z</time>
      </trkpt>
      <trkpt lat="48.24988" lon="4.68125">
        <ele>159</ele>
        <time>2024-07-03T07:51:32Z</time>
      </trkpt>
      <trkpt lat="48.24982" lon="4.68141">
        <ele>159</ele>
        <time>2024-07-03T07:51:34Z</time>
      </trkpt>
      <trkpt lat="48.24938" lon="4.68153">
        <ele>158</ele>
        <time>2024-07-03T07:51:42Z</time>
      </trkpt>
      <trkpt lat="48.24843" lon="4.68276">
        <ele>157</ele>
        <time>2024-07-03T07:52:04Z</time>
      </trkpt>
      <trkpt lat="48.24716" lon="4.68462">
        <ele>158</ele>
        <time>2024-07-03T07:52:36Z</time>
      </trkpt>
      <trkpt lat="48.24673" lon="4.68425">
        <ele>158</ele>
        <time>2024-07-03T07:52:45Z</time>
      </trkpt>
      <trkpt lat="48.24683" lon="4.68374">
        <ele>159</ele>
        <time>2024-07-03T07:52:51Z</time>
      </trkpt>
      <trkpt lat="48.24679" lon="4.6831">
        <ele>159</ele>
        <time>2024-07-03T07:52:58Z</time>
      </trkpt>
      <trkpt lat="48.2471" lon="4.68253">
        <ele>159</ele>
        <time>2024-07-03T07:53:07Z</time>
      </trkpt>
      <trkpt lat="48.24854" lon="4.68032">
        <ele>158</ele>
        <time>2024-07-03T07:53:44Z</time>
      </trkpt>
      <trkpt lat="48.24885" lon="4.67963">
        <ele>158</ele>
        <time>2024-07-03T07:53:54Z</time>
      </trkpt>
      <trkpt lat="48.2501" lon="4.67885">
        <ele>157</ele>
        <time>2024-07-03T07:54:18Z</time>
      </trkpt>
      <trkpt lat="48.25195" lon="4.68095">
        <ele>168</ele>
        <time>2024-07-03T07:54:59Z</time>
      </trkpt>
      <trkpt lat="48.25218" lon="4.68115">
        <ele>169</ele>
        <time>2024-07-03T07:55:04Z</time>
      </trkpt>
      <trkpt lat="48.25257" lon="4.68118">
        <ele>171</ele>
        <time>2024-07-03T07:55:11Z</time>
      </trkpt>
      <trkpt lat="48.25292" lon="4.68158">
        <ele>173</ele>
        <time>2024-07-03T07:55:18Z</time>
      </trkpt>
      <trkpt lat="48.25362" lon="4.68214">
        <ele>179</ele>
        <time>2024-07-03T07:55:33Z</time>
      </trkpt>
      <trkpt lat="48.25439" lon="4.6826">
        <ele>183</ele>
        <time>2024-07-03T07:55:47Z</time>
      </trkpt>
      <trkpt lat="48.2548" lon="4.68199">
        <ele>183</ele>
        <time>2024-07-03T07:55:58Z</time>
      </trkpt>
      <trkpt lat="48.25498" lon="4.68125">
        <ele>181</ele>
        <time>2024-07-03T07:56:07Z</time>
      </trkpt>
      <trkpt lat="48.25504" lon="4.68137">
        <ele>182</ele>
        <time>2024-07-03T07:56:09Z</time>
      </trkpt>
      <trkpt lat="48.25459" lon="4.68259">
        <ele>184</ele>
        <time>2024-07-03T07:56:25Z</time>
      </trkpt>
      <trkpt lat="48.25552" lon="4.68359">
        <ele>193</ele>
        <time>2024-07-03T07:56:46Z</time>
      </trkpt>
      <trkpt lat="48.25429" lon="4.68565">
        <ele>195</ele>
        <time>2024-07-03T07:57:18Z</time>
      </trkpt>
      <trkpt lat="48.25396" lon="4.68626">
        <ele>194</ele>
        <time>2024-07-03T07:57:28Z</time>
      </trkpt>
      <trkpt lat="48.254" lon="4.68755">
        <ele>199</ele>
        <time>2024-07-03T07:57:43Z</time>
      </trkpt>
      <trkpt lat="48.25348" lon="4.68707">
        <ele>190</ele>
        <time>2024-07-03T07:57:54Z</time>
      </trkpt>
      <trkpt lat="48.25266" lon="4.68635">
        <ele>181</ele>
        <time>2024-07-03T07:58:11Z</time>
      </trkpt>
      <trkpt lat="48.25221" lon="4.68581">
        <ele>178</ele>
        <time>2024-07-03T07:58:21Z</time>
      </trkpt>
      <trkpt lat="48.25182" lon="4.68587">
        <ele>174</ele>
        <time>2024-07-03T07:58:28Z</time>
      </trkpt>
      <trkpt lat="48.251" lon="4.68694">
        <ele>172</ele>
        <time>2024-07-03T07:58:47Z</time>
      </trkpt>
      <trkpt lat="48.2506" lon="4.68774">
        <ele>171</ele>
        <time>2024-07-03T07:58:59Z</time>
      </trkpt>
      <trkpt lat="48.25038" lon="4.68856">
        <ele>171</ele>
        <time>2024-07-03T07:59:10Z</time>
      </trkpt>
      <trkpt lat="48.25026" lon="4.69062">
        <ele>168</ele>
        <time>2024-07-03T07:59:34Z</time>
      </trkpt>
      <trkpt lat="48.24925" lon="4.69302">
        <ele>180</ele>
        <time>2024-07-03T08:00:08Z</time>
      </trkpt>
      <trkpt lat="48.25067" lon="4.69383">
        <ele>192</ele>
        <time>2024-07-03T08:00:35Z</time>
      </trkpt>
      <trkpt lat="48.25177" lon="4.69485">
        <ele>203</ele>
        <time>2024-07-03T08:00:58Z</time>
      </trkpt>
      <trkpt lat="48.25177" lon="4.69727">
        <ele>241</ele>
        <time>2024-07-03T08:01:26Z</time>
      </trkpt>
      <trkpt lat="48.25111" lon="4.69823">
        <ele>240</ele>
        <time>2024-07-03T08:01:43Z</time>
      </trkpt>
      <trkpt lat="48.25084" lon="4.6998">
        <ele>241</ele>
        <time>2024-07-03T08:02:02Z</time>
      </trkpt>
      <trkpt lat="48.25114" lon="4.70148">
        <ele>239</ele>
        <time>2024-07-03T08:02:23Z</time>
      </trkpt>
      <trkpt lat="48.25246" lon="4.70351">
        <ele>247</ele>
        <time>2024-07-03T08:02:56Z</time>
      </trkpt>
      <trkpt lat="48.25277" lon="4.70457">
        <ele>250</ele>
        <time>2024-07-03T08:03:10Z</time>
      </trkpt>
      <trkpt lat="48.25271" lon="4.70567">
        <ele>255</ele>
        <time>2024-07-03T08:03:23Z</time>
      </trkpt>
      <trkpt lat="48.25302" lon="4.70673">
        <ele>261</ele>
        <time>2024-07-03T08:03:37Z</time>
      </trkpt>
      <trkpt lat="48.25191" lon="4.70643">
        <ele>246</ele>
        <time>2024-07-03T08:03:57Z</time>
      </trkpt>
      <trkpt lat="48.25162" lon="4.70644">
        <ele>240</ele>
        <time>2024-07-03T08:04:02Z</time>
      </trkpt>
      <trkpt lat="48.25131" lon="4.70696">
        <ele>233</ele>
        <time>2024-07-03T08:04:10Z</time>
      </trkpt>
      <trkpt lat="48.25107" lon="4.70715">
        <ele>227</ele>
        <time>2024-07-03T08:04:15Z</time>
      </trkpt>
      <trkpt lat="48.25032" lon="4.70761">
        <ele>212</ele>
        <time>2024-07-03T08:04:29Z</time>
      </trkpt>
      <trkpt lat="48.24944" lon="4.70786">
        <ele>203</ele>
        <time>2024-07-03T08:04:45Z</time>
      </trkpt>
      <trkpt lat="48.2482" lon="4.70791">
        <ele>190</ele>
        <time>2024-07-03T08:05:08Z</time>
      </trkpt>
      <trkpt lat="48.24772" lon="4.70769">
        <ele>185</ele>
        <time>2024-07-03T08:05:16Z</time>
      </trkpt>
      <trkpt lat="48.24712" lon="4.70821">
        <ele>179</ele>
        <time>2024-07-03T08:05:29Z</time>
      </trkpt>
      <trkpt lat="48.2464" lon="4.70843">
        <ele>174</ele>
        <time>2024-07-03T08:05:42Z</time>
      </trkpt>
      <trkpt lat="48.24553" lon="4.70773">
        <ele>172</ele>
        <time>2024-07-03T08:05:59Z</time>
      </trkpt>
      <trkpt lat="48.24468" lon="4.70733">
        <ele>168</ele>
        <time>2024-07-03T08:06:15Z</time>
      </trkpt>
      <trkpt lat="48.24377" lon="4.709">
        <ele>171</ele>
        <time>2024-07-03T08:06:41Z</time>
      </trkpt>
      <trkpt lat="48.24332" lon="4.71128">
        <ele>176</ele>
        <time>2024-07-03T08:07:09Z</time>
      </trkpt>
      <trkpt lat="48.23941" lon="4.71091">
        <ele>162</ele>
        <time>2024-07-03T08:08:19Z</time>
      </trkpt>
      <trkpt lat="48.23771" lon="4.70787">
        <ele>163</ele>
        <time>2024-07-03T08:09:06Z</time>
      </trkpt>
      <trkpt lat="48.23614" lon="4.70637">
        <ele>164</ele>
        <time>2024-07-03T08:09:39Z</time>
      </trkpt>
      <trkpt lat="48.23474" lon="4.70482">
        <ele>166</ele>
        <time>2024-07-03T08:10:10Z</time>
      </trkpt>
      <trkpt lat="48.23297" lon="4.70679">
        <ele>170</ele>
        <time>2024-07-03T08:10:49Z</time>
      </trkpt>
    </trkseg>
  </trk>
</gpx>